sensor_id;sensor_type;location;lat;lon;timestamp;pressure;altitude;pressure_sealevel;temperature
68952;BMP180;56000;51.146;17.112;2023-04-15T00:00:31;98886.60;;;11.20
68952;BMP180;56000;51.146;17.112;2023-04-15T00:03:18;98879.80;;;11.20
68952;BMP180;56000;51.146;17.112;2023-04-15T00:05:51;98875.20;;;11.20
68952;BMP180;56000;51.146;17.112;2023-04-15T00:08:24;98871.80;;;11.20
68952;BMP180;56000;51.146;17.112;2023-04-15T00:10:57;98868.20;;;11.20
68952;BMP180;56000;51.146;17.112;2023-04-15T00:13:33;98868.00;;;11.20
68952;BMP180;56000;51.146;17.112;2023-04-15T00:16:08;98870.00;;;11.20
68952;BMP180;56000;51.146;17.112;2023-04-15T00:18:41;98864.80;;;11.20
68952;BMP180;56000;51.146;17.112;2023-04-15T00:21:14;98870.60;;;11.20
68952;BMP180;56000;51.146;17.112;2023-04-15T00:23:47;98872.80;;;11.20
68952;BMP180;56000;51.146;17.112;2023-04-15T00:26:24;98869.40;;;11.20
68952;BMP180;56000;51.146;17.112;2023-04-15T00:28:57;98875.20;;;11.20
68952;BMP180;56000;51.146;17.112;2023-04-15T00:31:32;98868.80;;;11.20
68952;BMP180;56000;51.146;17.112;2023-04-15T00:34:05;98870.80;;;11.16
68952;BMP180;56000;51.146;17.112;2023-04-15T00:36:38;98874.60;;;11.10
68952;BMP180;56000;51.146;17.112;2023-04-15T00:39:11;98868.00;;;11.10
68952;BMP180;56000;51.146;17.112;2023-04-15T00:41:46;98864.60;;;11.10
68952;BMP180;56000;51.146;17.112;2023-04-15T00:44:19;98856.80;;;11.00
68952;BMP180;56000;51.146;17.112;2023-04-15T00:46:53;98858.60;;;11.00
68952;BMP180;56000;51.146;17.112;2023-04-15T00:49:26;98865.60;;;11.00
68952;BMP180;56000;51.146;17.112;2023-04-15T00:51:59;98865.00;;;11.00
68952;BMP180;56000;51.146;17.112;2023-04-15T00:54:33;98867.40;;;11.00
68952;BMP180;56000;51.146;17.112;2023-04-15T00:57:08;98873.20;;;11.00
68952;BMP180;56000;51.146;17.112;2023-04-15T00:59:41;98874.40;;;11.00
68952;BMP180;56000;51.146;17.112;2023-04-15T01:02:15;98881.00;;;11.00
68952;BMP180;56000;51.146;17.112;2023-04-15T01:04:48;98881.40;;;11.00
68952;BMP180;56000;51.146;17.112;2023-04-15T01:07:22;98878.40;;;11.00
68952;BMP180;56000;51.146;17.112;2023-04-15T01:09:55;98882.00;;;11.00
68952;BMP180;56000;51.146;17.112;2023-04-15T01:12:29;98878.40;;;11.00
68952;BMP180;56000;51.146;17.112;2023-04-15T01:15:05;98875.60;;;11.00
68952;BMP180;56000;51.146;17.112;2023-04-15T01:17:39;98873.40;;;11.00
68952;BMP180;56000;51.146;17.112;2023-04-15T01:20:13;98867.60;;;11.00
68952;BMP180;56000;51.146;17.112;2023-04-15T01:22:47;98872.60;;;11.00
68952;BMP180;56000;51.146;17.112;2023-04-15T01:25:25;98867.40;;;11.00
68952;BMP180;56000;51.146;17.112;2023-04-15T01:28:00;98868.60;;;11.00
68952;BMP180;56000;51.146;17.112;2023-04-15T01:30:37;98871.20;;;11.00
68952;BMP180;56000;51.146;17.112;2023-04-15T01:33:10;98871.00;;;11.00
68952;BMP180;56000;51.146;17.112;2023-04-15T01:35:43;98870.40;;;11.00
68952;BMP180;56000;51.146;17.112;2023-04-15T01:38:16;98877.60;;;11.00
68952;BMP180;56000;51.146;17.112;2023-04-15T01:40:49;98880.80;;;11.00
68952;BMP180;56000;51.146;17.112;2023-04-15T01:43:22;98885.60;;;11.00
68952;BMP180;56000;51.146;17.112;2023-04-15T01:45:55;98881.00;;;10.96
68952;BMP180;56000;51.146;17.112;2023-04-15T01:48:28;98881.60;;;10.90
68952;BMP180;56000;51.146;17.112;2023-04-15T01:51:01;98877.20;;;10.90
68952;BMP180;56000;51.146;17.112;2023-04-15T01:53:34;98877.40;;;10.90
68952;BMP180;56000;51.146;17.112;2023-04-15T01:56:08;98881.60;;;10.90
68952;BMP180;56000;51.146;17.112;2023-04-15T01:58:41;98886.00;;;10.90
68952;BMP180;56000;51.146;17.112;2023-04-15T02:01:14;98881.60;;;10.90
68952;BMP180;56000;51.146;17.112;2023-04-15T02:03:47;98889.20;;;10.90
68952;BMP180;56000;51.146;17.112;2023-04-15T02:06:20;98888.20;;;10.90
68952;BMP180;56000;51.146;17.112;2023-04-15T02:08:54;98892.20;;;10.90
68952;BMP180;56000;51.146;17.112;2023-04-15T02:11:27;98889.20;;;10.90
68952;BMP180;56000;51.146;17.112;2023-04-15T02:14:00;98894.80;;;10.90
68952;BMP180;56000;51.146;17.112;2023-04-15T02:16:33;98896.20;;;10.80
68952;BMP180;56000;51.146;17.112;2023-04-15T02:19:06;98895.80;;;10.80
68952;BMP180;56000;51.146;17.112;2023-04-15T02:21:41;98902.40;;;10.80
68952;BMP180;56000;51.146;17.112;2023-04-15T02:24:14;98898.40;;;10.80
68952;BMP180;56000;51.146;17.112;2023-04-15T02:26:46;98900.20;;;10.70
68952;BMP180;56000;51.146;17.112;2023-04-15T02:29:19;98902.00;;;10.74
68952;BMP180;56000;51.146;17.112;2023-04-15T02:31:53;98902.80;;;10.70
68952;BMP180;56000;51.146;17.112;2023-04-15T02:34:27;98897.00;;;10.70
68952;BMP180;56000;51.146;17.112;2023-04-15T02:37:00;98899.80;;;10.70
68952;BMP180;56000;51.146;17.112;2023-04-15T02:39:34;98900.20;;;10.70
68952;BMP180;56000;51.146;17.112;2023-04-15T02:42:07;98901.80;;;10.70
68952;BMP180;56000;51.146;17.112;2023-04-15T02:44:40;98903.80;;;10.70
68952;BMP180;56000;51.146;17.112;2023-04-15T02:47:14;98900.00;;;10.70
68952;BMP180;56000;51.146;17.112;2023-04-15T02:49:47;98906.40;;;10.70
68952;BMP180;56000;51.146;17.112;2023-04-15T02:52:20;98911.80;;;10.68
68952;BMP180;56000;51.146;17.112;2023-04-15T02:54:53;98907.80;;;10.60
68952;BMP180;56000;51.146;17.112;2023-04-15T02:57:28;98910.00;;;10.60
68952;BMP180;56000;51.146;17.112;2023-04-15T03:00:06;98909.60;;;10.60
68952;BMP180;56000;51.146;17.112;2023-04-15T03:02:45;98911.20;;;10.60
68952;BMP180;56000;51.146;17.112;2023-04-15T03:05:18;98916.00;;;10.60
68952;BMP180;56000;51.146;17.112;2023-04-15T03:07:54;98921.20;;;10.60
68952;BMP180;56000;51.146;17.112;2023-04-15T03:10:27;98930.60;;;10.60
68952;BMP180;56000;51.146;17.112;2023-04-15T03:13:00;98938.60;;;10.50
68952;BMP180;56000;51.146;17.112;2023-04-15T03:15:34;98943.00;;;10.50
68952;BMP180;56000;51.146;17.112;2023-04-15T03:18:08;98949.60;;;10.42
68952;BMP180;56000;51.146;17.112;2023-04-15T03:20:44;98963.20;;;10.40
68952;BMP180;56000;51.146;17.112;2023-04-15T03:23:17;98961.00;;;10.30
68952;BMP180;56000;51.146;17.112;2023-04-15T03:25:51;98951.40;;;10.30
68952;BMP180;56000;51.146;17.112;2023-04-15T03:28:27;98949.80;;;10.20
68952;BMP180;56000;51.146;17.112;2023-04-15T03:31:01;98951.60;;;10.20
68952;BMP180;56000;51.146;17.112;2023-04-15T03:33:35;98958.80;;;10.10
68952;BMP180;56000;51.146;17.112;2023-04-15T03:36:08;98964.20;;;10.10
68952;BMP180;56000;51.146;17.112;2023-04-15T03:38:42;98969.60;;;10.04
68952;BMP180;56000;51.146;17.112;2023-04-15T03:41:15;98972.60;;;10.00
68952;BMP180;56000;51.146;17.112;2023-04-15T03:43:48;98971.40;;;10.00
68952;BMP180;56000;51.146;17.112;2023-04-15T03:46:22;98981.00;;;9.90
68952;BMP180;56000;51.146;17.112;2023-04-15T03:48:55;98990.20;;;9.90
68952;BMP180;56000;51.146;17.112;2023-04-15T03:51:28;98995.40;;;9.80
68952;BMP180;56000;51.146;17.112;2023-04-15T03:54:01;98997.20;;;9.80
68952;BMP180;56000;51.146;17.112;2023-04-15T03:56:34;99005.80;;;9.70
68952;BMP180;56000;51.146;17.112;2023-04-15T03:59:07;99005.40;;;9.60
68952;BMP180;56000;51.146;17.112;2023-04-15T04:01:40;99010.20;;;9.50
68952;BMP180;56000;51.146;17.112;2023-04-15T04:04:13;99011.00;;;9.46
68952;BMP180;56000;51.146;17.112;2023-04-15T04:06:47;99018.60;;;9.40
68952;BMP180;56000;51.146;17.112;2023-04-15T04:09:20;99024.20;;;9.30
68952;BMP180;56000;51.146;17.112;2023-04-15T04:11:53;99028.00;;;9.20
68952;BMP180;56000;51.146;17.112;2023-04-15T04:14:26;99026.20;;;9.20
68952;BMP180;56000;51.146;17.112;2023-04-15T04:17:00;99024.00;;;9.10
68952;BMP180;56000;51.146;17.112;2023-04-15T04:19:33;99022.60;;;9.00
68952;BMP180;56000;51.146;17.112;2023-04-15T04:22:06;99029.80;;;9.00
68952;BMP180;56000;51.146;17.112;2023-04-15T04:24:39;99028.40;;;8.90
68952;BMP180;56000;51.146;17.112;2023-04-15T04:27:12;99033.40;;;8.90
68952;BMP180;56000;51.146;17.112;2023-04-15T04:29:45;99043.00;;;8.80
68952;BMP180;56000;51.146;17.112;2023-04-15T04:32:20;99053.20;;;8.80
68952;BMP180;56000;51.146;17.112;2023-04-15T04:34:53;99049.60;;;8.80
68952;BMP180;56000;51.146;17.112;2023-04-15T04:37:26;99049.20;;;8.72
68952;BMP180;56000;51.146;17.112;2023-04-15T04:39:59;99051.80;;;8.70
68952;BMP180;56000;51.146;17.112;2023-04-15T04:42:32;99054.00;;;8.70
68952;BMP180;56000;51.146;17.112;2023-04-15T04:45:09;99057.00;;;8.70
68952;BMP180;56000;51.146;17.112;2023-04-15T04:47:42;99059.20;;;8.70
68952;BMP180;56000;51.146;17.112;2023-04-15T04:50:15;99067.20;;;8.70
68952;BMP180;56000;51.146;17.112;2023-04-15T04:52:49;99070.00;;;8.70
68952;BMP180;56000;51.146;17.112;2023-04-15T04:55:22;99063.00;;;8.70
68952;BMP180;56000;51.146;17.112;2023-04-15T04:57:55;99064.00;;;8.70
68952;BMP180;56000;51.146;17.112;2023-04-15T05:00:28;99071.00;;;8.70
68952;BMP180;56000;51.146;17.112;2023-04-15T05:03:01;99068.40;;;8.70
68952;BMP180;56000;51.146;17.112;2023-04-15T05:05:34;99070.20;;;8.72
68952;BMP180;56000;51.146;17.112;2023-04-15T05:08:07;99070.80;;;8.80
68952;BMP180;56000;51.146;17.112;2023-04-15T05:10:40;99069.40;;;8.80
68952;BMP180;56000;51.146;17.112;2023-04-15T05:13:13;99063.60;;;8.80
68952;BMP180;56000;51.146;17.112;2023-04-15T05:15:46;99065.80;;;8.88
68952;BMP180;56000;51.146;17.112;2023-04-15T05:18:20;99069.20;;;8.90
68952;BMP180;56000;51.146;17.112;2023-04-15T05:20:53;99070.80;;;8.90
68952;BMP180;56000;51.146;17.112;2023-04-15T05:23:26;99082.80;;;9.00
68952;BMP180;56000;51.146;17.112;2023-04-15T05:25:59;99084.00;;;9.00
68952;BMP180;56000;51.146;17.112;2023-04-15T05:28:32;99084.20;;;9.00
68952;BMP180;56000;51.146;17.112;2023-04-15T05:31:05;99080.20;;;9.00
68952;BMP180;56000;51.146;17.112;2023-04-15T05:33:39;99081.20;;;9.00
68952;BMP180;56000;51.146;17.112;2023-04-15T05:36:12;99089.20;;;9.00
68952;BMP180;56000;51.146;17.112;2023-04-15T05:38:45;99100.40;;;9.10
68952;BMP180;56000;51.146;17.112;2023-04-15T05:41:18;99103.40;;;9.10
68952;BMP180;56000;51.146;17.112;2023-04-15T05:43:51;99103.80;;;9.20
68952;BMP180;56000;51.146;17.112;2023-04-15T05:46:24;99104.80;;;9.20
68952;BMP180;56000;51.146;17.112;2023-04-15T05:48:58;99104.60;;;9.30
68952;BMP180;56000;51.146;17.112;2023-04-15T05:51:31;99107.20;;;9.40
68952;BMP180;56000;51.146;17.112;2023-04-15T05:54:04;99112.60;;;9.40
68952;BMP180;56000;51.146;17.112;2023-04-15T05:56:37;99113.60;;;9.50
68952;BMP180;56000;51.146;17.112;2023-04-15T05:59:10;99117.20;;;9.60
68952;BMP180;56000;51.146;17.112;2023-04-15T06:01:43;99128.60;;;9.70
68952;BMP180;56000;51.146;17.112;2023-04-15T06:04:16;99125.20;;;9.78
68952;BMP180;56000;51.146;17.112;2023-04-15T06:06:49;99135.00;;;9.80
68952;BMP180;56000;51.146;17.112;2023-04-15T06:09:22;99134.20;;;9.90
68952;BMP180;56000;51.146;17.112;2023-04-15T06:11:56;99135.20;;;9.90
68952;BMP180;56000;51.146;17.112;2023-04-15T06:14:29;99141.00;;;10.00
68952;BMP180;56000;51.146;17.112;2023-04-15T06:17:02;99145.00;;;10.10
68952;BMP180;56000;51.146;17.112;2023-04-15T06:19:35;99142.80;;;10.20
68952;BMP180;56000;51.146;17.112;2023-04-15T06:22:08;99147.40;;;10.30
68952;BMP180;56000;51.146;17.112;2023-04-15T06:24:41;99146.80;;;10.40
68952;BMP180;56000;51.146;17.112;2023-04-15T06:27:14;99147.40;;;10.40
68952;BMP180;56000;51.146;17.112;2023-04-15T06:29:47;99152.00;;;10.40
68952;BMP180;56000;51.146;17.112;2023-04-15T06:32:20;99148.60;;;10.50
68952;BMP180;56000;51.146;17.112;2023-04-15T06:34:53;99153.20;;;10.50
68952;BMP180;56000;51.146;17.112;2023-04-15T06:37:26;99154.40;;;10.48
68952;BMP180;56000;51.146;17.112;2023-04-15T06:40:00;99151.60;;;10.40
68952;BMP180;56000;51.146;17.112;2023-04-15T06:42:33;99154.00;;;10.40
68952;BMP180;56000;51.146;17.112;2023-04-15T06:45:09;99157.20;;;10.40
68952;BMP180;56000;51.146;17.112;2023-04-15T06:47:43;99160.60;;;10.40
68952;BMP180;56000;51.146;17.112;2023-04-15T06:50:16;99162.20;;;10.40
68952;BMP180;56000;51.146;17.112;2023-04-15T06:52:49;99169.60;;;10.40
68952;BMP180;56000;51.146;17.112;2023-04-15T06:55:22;99165.00;;;10.50
68952;BMP180;56000;51.146;17.112;2023-04-15T06:57:55;99171.00;;;10.54
68952;BMP180;56000;51.146;17.112;2023-04-15T07:05:02;99173.20;;;10.60
68952;BMP180;56000;51.146;17.112;2023-04-15T07:07:36;99170.40;;;10.60
68952;BMP180;56000;51.146;17.112;2023-04-15T07:10:11;99182.20;;;10.70
68952;BMP180;56000;51.146;17.112;2023-04-15T07:12:45;99183.60;;;10.90
68952;BMP180;56000;51.146;17.112;2023-04-15T07:15:19;99182.00;;;11.00
68952;BMP180;56000;51.146;17.112;2023-04-15T07:17:53;99181.60;;;11.10
68952;BMP180;56000;51.146;17.112;2023-04-15T07:20:26;99187.60;;;11.10
68952;BMP180;56000;51.146;17.112;2023-04-15T07:22:59;99192.60;;;11.10
68952;BMP180;56000;51.146;17.112;2023-04-15T07:25:33;99189.20;;;11.18
68952;BMP180;56000;51.146;17.112;2023-04-15T07:28:06;99193.00;;;11.20
68952;BMP180;56000;51.146;17.112;2023-04-15T07:30:40;99196.40;;;11.30
68952;BMP180;56000;51.146;17.112;2023-04-15T07:33:13;99201.00;;;11.40
68952;BMP180;56000;51.146;17.112;2023-04-15T07:35:46;99202.00;;;11.40
68952;BMP180;56000;51.146;17.112;2023-04-15T07:38:19;99202.80;;;11.40
68952;BMP180;56000;51.146;17.112;2023-04-15T07:40:53;99211.80;;;11.30
68952;BMP180;56000;51.146;17.112;2023-04-15T07:43:26;99201.80;;;11.20
68952;BMP180;56000;51.146;17.112;2023-04-15T07:45:59;99201.40;;;11.20
68952;BMP180;56000;51.146;17.112;2023-04-15T07:48:32;99200.40;;;11.20
68952;BMP180;56000;51.146;17.112;2023-04-15T07:51:08;99197.40;;;11.26
68952;BMP180;56000;51.146;17.112;2023-04-15T07:53:41;99199.00;;;11.38
68952;BMP180;56000;51.146;17.112;2023-04-15T07:56:15;99202.00;;;11.50
68952;BMP180;56000;51.146;17.112;2023-04-15T07:58:48;99200.80;;;11.70
68952;BMP180;56000;51.146;17.112;2023-04-15T08:01:21;99199.00;;;11.80
68952;BMP180;56000;51.146;17.112;2023-04-15T08:03:54;99202.60;;;11.90
68952;BMP180;56000;51.146;17.112;2023-04-15T08:06:27;99207.20;;;12.02
68952;BMP180;56000;51.146;17.112;2023-04-15T08:09:01;99207.40;;;12.34
68952;BMP180;56000;51.146;17.112;2023-04-15T08:11:35;99218.00;;;12.70
68952;BMP180;56000;51.146;17.112;2023-04-15T08:14:08;99212.40;;;12.80
68952;BMP180;56000;51.146;17.112;2023-04-15T08:16:42;99218.80;;;12.80
68952;BMP180;56000;51.146;17.112;2023-04-15T08:19:15;99224.20;;;12.90
68952;BMP180;56000;51.146;17.112;2023-04-15T08:21:48;99227.00;;;13.10
68952;BMP180;56000;51.146;17.112;2023-04-15T08:24:21;99238.20;;;13.40
68952;BMP180;56000;51.146;17.112;2023-04-15T08:26:54;99236.60;;;13.70
68952;BMP180;56000;51.146;17.112;2023-04-15T08:29:28;99239.20;;;14.00
68952;BMP180;56000;51.146;17.112;2023-04-15T08:32:01;99230.20;;;14.10
68952;BMP180;56000;51.146;17.112;2023-04-15T08:34:35;99234.60;;;14.40
68952;BMP180;56000;51.146;17.112;2023-04-15T08:37:08;99239.20;;;14.76
68952;BMP180;56000;51.146;17.112;2023-04-15T08:39:44;99243.80;;;15.16
68952;BMP180;56000;51.146;17.112;2023-04-15T08:42:26;99245.00;;;15.48
68952;BMP180;56000;51.146;17.112;2023-04-15T08:45:00;99248.60;;;15.98
68952;BMP180;56000;51.146;17.112;2023-04-15T08:47:37;99238.60;;;16.38
68952;BMP180;56000;51.146;17.112;2023-04-15T08:50:12;99243.00;;;16.76
68952;BMP180;56000;51.146;17.112;2023-04-15T08:52:46;99250.60;;;17.00
68952;BMP180;56000;51.146;17.112;2023-04-15T08:55:20;99248.40;;;17.18
68952;BMP180;56000;51.146;17.112;2023-04-15T08:57:54;99252.20;;;17.48
68952;BMP180;56000;51.146;17.112;2023-04-15T09:00:31;99253.40;;;17.60
68952;BMP180;56000;51.146;17.112;2023-04-15T09:03:05;99252.20;;;17.40
68952;BMP180;56000;51.146;17.112;2023-04-15T09:05:38;99254.80;;;17.40
68952;BMP180;56000;51.146;17.112;2023-04-15T09:08:11;99251.40;;;17.42
68952;BMP180;56000;51.146;17.112;2023-04-15T09:10:44;99252.60;;;17.40
68952;BMP180;56000;51.146;17.112;2023-04-15T09:13:18;99258.60;;;17.42
68952;BMP180;56000;51.146;17.112;2023-04-15T09:15:52;99249.20;;;17.40
68952;BMP180;56000;51.146;17.112;2023-04-15T09:18:33;99245.80;;;17.64
68952;BMP180;56000;51.146;17.112;2023-04-15T09:21:11;99252.80;;;18.02
68952;BMP180;56000;51.146;17.112;2023-04-15T09:23:57;99251.20;;;18.20
68952;BMP180;56000;51.146;17.112;2023-04-15T09:26:37;99260.80;;;18.70
68952;BMP180;56000;51.146;17.112;2023-04-15T09:29:12;99260.00;;;19.16
68952;BMP180;56000;51.146;17.112;2023-04-15T09:31:45;99254.60;;;19.54
68952;BMP180;56000;51.146;17.112;2023-04-15T09:34:18;99260.60;;;20.00
68952;BMP180;56000;51.146;17.112;2023-04-15T09:37:00;99265.60;;;20.16
68952;BMP180;56000;51.146;17.112;2023-04-15T09:39:49;99270.00;;;20.20
68952;BMP180;56000;51.146;17.112;2023-04-15T09:42:22;99270.40;;;20.40
68952;BMP180;56000;51.146;17.112;2023-04-15T09:45:08;99270.60;;;20.50
68952;BMP180;56000;51.146;17.112;2023-04-15T09:47:42;99270.80;;;20.38
68952;BMP180;56000;51.146;17.112;2023-04-15T09:50:17;99269.60;;;20.68
68952;BMP180;56000;51.146;17.112;2023-04-15T09:52:50;99272.80;;;21.16
68952;BMP180;56000;51.146;17.112;2023-04-15T09:55:23;99279.60;;;21.56
68952;BMP180;56000;51.146;17.112;2023-04-15T09:57:57;99287.00;;;22.00
68952;BMP180;56000;51.146;17.112;2023-04-15T10:00:31;99284.20;;;22.00
68952;BMP180;56000;51.146;17.112;2023-04-15T10:03:05;99287.20;;;22.16
68952;BMP180;56000;51.146;17.112;2023-04-15T10:05:39;99282.80;;;22.34
68952;BMP180;56000;51.146;17.112;2023-04-15T10:08:12;99285.20;;;22.74
68952;BMP180;56000;51.146;17.112;2023-04-15T10:10:47;99287.60;;;23.40
68952;BMP180;56000;51.146;17.112;2023-04-15T10:13:24;99292.00;;;22.68
68952;BMP180;56000;51.146;17.112;2023-04-15T10:16:02;99302.00;;;21.76
68952;BMP180;56000;51.146;17.112;2023-04-15T10:18:41;99301.00;;;21.14
68952;BMP180;56000;51.146;17.112;2023-04-15T10:21:15;99296.00;;;20.80
68952;BMP180;56000;51.146;17.112;2023-04-15T10:23:50;99291.00;;;21.04
68952;BMP180;56000;51.146;17.112;2023-04-15T10:26:23;99298.00;;;21.70
68952;BMP180;56000;51.146;17.112;2023-04-15T10:28:56;99301.20;;;21.50
68952;BMP180;56000;51.146;17.112;2023-04-15T10:31:31;99297.80;;;21.06
68952;BMP180;56000;51.146;17.112;2023-04-15T10:34:04;99299.80;;;20.38
68952;BMP180;56000;51.146;17.112;2023-04-15T10:36:37;99296.00;;;20.00
68952;BMP180;56000;51.146;17.112;2023-04-15T10:39:44;99306.80;;;20.74
68952;BMP180;56000;51.146;17.112;2023-04-15T10:42:18;99303.80;;;20.04
68952;BMP180;56000;51.146;17.112;2023-04-15T10:44:56;99304.60;;;19.36
68952;BMP180;56000;51.146;17.112;2023-04-15T10:47:30;99305.40;;;18.70
68952;BMP180;56000;51.146;17.112;2023-04-15T10:50:05;99306.40;;;19.28
68952;BMP180;56000;51.146;17.112;2023-04-15T10:52:41;99308.00;;;20.08
68952;BMP180;56000;51.146;17.112;2023-04-15T10:55:20;99308.20;;;21.30
68952;BMP180;56000;51.146;17.112;2023-04-15T10:57:57;99313.80;;;23.58
68952;BMP180;56000;51.146;17.112;2023-04-15T11:00:36;99324.80;;;23.24
68952;BMP180;56000;51.146;17.112;2023-04-15T11:03:11;99328.20;;;21.96
68952;BMP180;56000;51.146;17.112;2023-04-15T11:05:54;99324.80;;;21.04
68952;BMP180;56000;51.146;17.112;2023-04-15T11:08:57;99320.80;;;20.20
68952;BMP180;56000;51.146;17.112;2023-04-15T11:12:08;99324.40;;;19.90
68952;BMP180;56000;51.146;17.112;2023-04-15T11:14:43;99323.20;;;20.68
68952;BMP180;56000;51.146;17.112;2023-04-15T11:17:27;99317.00;;;20.60
68952;BMP180;56000;51.146;17.112;2023-04-15T11:20:01;99319.80;;;21.16
68952;BMP180;56000;51.146;17.112;2023-04-15T11:22:35;99324.60;;;21.82
68952;BMP180;56000;51.146;17.112;2023-04-15T11:25:08;99324.20;;;23.74
68952;BMP180;56000;51.146;17.112;2023-04-15T11:27:41;99325.60;;;25.84
68952;BMP180;56000;51.146;17.112;2023-04-15T11:30:24;99327.00;;;28.14
68952;BMP180;56000;51.146;17.112;2023-04-15T11:33:02;99341.20;;;28.64
68952;BMP180;56000;51.146;17.112;2023-04-15T11:35:35;99340.40;;;26.74
68952;BMP180;56000;51.146;17.112;2023-04-15T11:38:12;99333.60;;;24.70
68952;BMP180;56000;51.146;17.112;2023-04-15T11:40:46;99343.20;;;23.24
68952;BMP180;56000;51.146;17.112;2023-04-15T11:43:21;99344.40;;;22.88
68952;BMP180;56000;51.146;17.112;2023-04-15T11:45:56;99343.80;;;22.26
68952;BMP180;56000;51.146;17.112;2023-04-15T11:48:30;99343.60;;;21.46
68952;BMP180;56000;51.146;17.112;2023-04-15T11:51:05;99345.60;;;21.22
68952;BMP180;56000;51.146;17.112;2023-04-15T11:53:43;99343.60;;;20.70
68952;BMP180;56000;51.146;17.112;2023-04-15T11:56:21;99353.40;;;20.60
68952;BMP180;56000;51.146;17.112;2023-04-15T11:58:57;99356.20;;;20.80
68952;BMP180;56000;51.146;17.112;2023-04-15T12:01:40;99357.00;;;20.70
68952;BMP180;56000;51.146;17.112;2023-04-15T12:04:16;99364.60;;;20.22
68952;BMP180;56000;51.146;17.112;2023-04-15T12:06:55;99364.40;;;19.90
68952;BMP180;56000;51.146;17.112;2023-04-15T12:09:39;99366.40;;;19.56
68952;BMP180;56000;51.146;17.112;2023-04-15T12:12:13;99370.00;;;19.40
68952;BMP180;56000;51.146;17.112;2023-04-15T12:14:46;99373.40;;;19.04
68952;BMP180;56000;51.146;17.112;2023-04-15T12:17:19;99375.00;;;18.52
68952;BMP180;56000;51.146;17.112;2023-04-15T12:19:58;99372.60;;;18.20
68952;BMP180;56000;51.146;17.112;2023-04-15T12:22:31;99374.00;;;18.00
68952;BMP180;56000;51.146;17.112;2023-04-15T12:25:09;99374.60;;;18.36
68952;BMP180;56000;51.146;17.112;2023-04-15T12:27:51;99373.20;;;18.96
68952;BMP180;56000;51.146;17.112;2023-04-15T12:30:25;99373.60;;;19.48
68952;BMP180;56000;51.146;17.112;2023-04-15T12:32:59;99371.40;;;19.92
68952;BMP180;56000;51.146;17.112;2023-04-15T12:35:33;99371.60;;;20.20
68952;BMP180;56000;51.146;17.112;2023-04-15T12:38:06;99375.60;;;20.50
68952;BMP180;56000;51.146;17.112;2023-04-15T12:40:41;99370.00;;;21.10
68952;BMP180;56000;51.146;17.112;2023-04-15T12:43:14;99384.00;;;21.30
68952;BMP180;56000;51.146;17.112;2023-04-15T12:45:47;99378.40;;;21.30
68952;BMP180;56000;51.146;17.112;2023-04-15T12:48:20;99380.80;;;21.40
68952;BMP180;56000;51.146;17.112;2023-04-15T12:50:53;99379.00;;;21.40
68952;BMP180;56000;51.146;17.112;2023-04-15T12:53:27;99380.20;;;21.40
68952;BMP180;56000;51.146;17.112;2023-04-15T12:56:00;99381.20;;;21.20
68952;BMP180;56000;51.146;17.112;2023-04-15T12:58:34;99388.80;;;20.70
68952;BMP180;56000;51.146;17.112;2023-04-15T13:01:07;99391.60;;;20.56
68952;BMP180;56000;51.146;17.112;2023-04-15T13:03:40;99384.80;;;20.10
68952;BMP180;56000;51.146;17.112;2023-04-15T13:06:14;99382.40;;;19.60
68952;BMP180;56000;51.146;17.112;2023-04-15T13:08:47;99380.40;;;19.50
68952;BMP180;56000;51.146;17.112;2023-04-15T13:11:30;99379.40;;;19.66
68952;BMP180;56000;51.146;17.112;2023-04-15T13:14:07;99374.80;;;20.68
68952;BMP180;56000;51.146;17.112;2023-04-15T13:16:42;99385.20;;;21.70
68952;BMP180;56000;51.146;17.112;2023-04-15T13:19:15;99386.20;;;21.60
68952;BMP180;56000;51.146;17.112;2023-04-15T13:21:48;99383.40;;;21.40
68952;BMP180;56000;51.146;17.112;2023-04-15T13:24:21;99380.00;;;22.94
68952;BMP180;56000;51.146;17.112;2023-04-15T13:26:55;99383.60;;;25.28
68952;BMP180;56000;51.146;17.112;2023-04-15T13:29:29;99395.00;;;27.54
68952;BMP180;56000;51.146;17.112;2023-04-15T13:32:03;99395.00;;;29.88
68952;BMP180;56000;51.146;17.112;2023-04-15T13:34:36;99392.80;;;31.86
68952;BMP180;56000;51.146;17.112;2023-04-15T13:37:10;99390.40;;;33.36
68952;BMP180;56000;51.146;17.112;2023-04-15T13:39:43;99392.60;;;34.10
68952;BMP180;56000;51.146;17.112;2023-04-15T13:42:16;99391.40;;;34.30
68952;BMP180;56000;51.146;17.112;2023-04-15T13:44:49;99392.60;;;34.70
68952;BMP180;56000;51.146;17.112;2023-04-15T13:47:23;99397.00;;;34.80
68952;BMP180;56000;51.146;17.112;2023-04-15T13:49:56;99396.40;;;35.02
68952;BMP180;56000;51.146;17.112;2023-04-15T13:52:29;99387.80;;;34.32
68952;BMP180;56000;51.146;17.112;2023-04-15T13:55:03;99387.00;;;34.28
68952;BMP180;56000;51.146;17.112;2023-04-15T13:57:51;99391.80;;;35.06
68952;BMP180;56000;51.146;17.112;2023-04-15T14:00:24;99401.60;;;36.12
68952;BMP180;56000;51.146;17.112;2023-04-15T14:02:57;99413.20;;;36.16
68952;BMP180;56000;51.146;17.112;2023-04-15T14:05:30;99404.20;;;33.72
68952;BMP180;56000;51.146;17.112;2023-04-15T14:08:04;99404.20;;;33.70
68952;BMP180;56000;51.146;17.112;2023-04-15T14:10:37;99407.60;;;34.72
68952;BMP180;56000;51.146;17.112;2023-04-15T14:13:10;99414.20;;;35.28
68952;BMP180;56000;51.146;17.112;2023-04-15T14:15:43;99419.20;;;35.16
68952;BMP180;56000;51.146;17.112;2023-04-15T14:18:16;99412.00;;;33.80
68952;BMP180;56000;51.146;17.112;2023-04-15T14:20:49;99410.20;;;32.90
68952;BMP180;56000;51.146;17.112;2023-04-15T14:23:22;99411.00;;;33.32
68952;BMP180;56000;51.146;17.112;2023-04-15T14:25:55;99410.40;;;33.50
68952;BMP180;56000;51.146;17.112;2023-04-15T14:28:28;99411.00;;;33.60
68952;BMP180;56000;51.146;17.112;2023-04-15T14:31:02;99416.20;;;33.42
68952;BMP180;56000;51.146;17.112;2023-04-15T14:33:35;99418.80;;;32.26
68952;BMP180;56000;51.146;17.112;2023-04-15T14:36:09;99422.40;;;31.90
68952;BMP180;56000;51.146;17.112;2023-04-15T14:38:43;99428.40;;;31.98
68952;BMP180;56000;51.146;17.112;2023-04-15T14:41:18;99431.00;;;32.20
68952;BMP180;56000;51.146;17.112;2023-04-15T14:43:52;99431.60;;;32.24